METAR Reports From Nearby Airports

 

KLUD - Decatur, Texas, USA
Distance from Wildwood: ESE 5mi, 8km
Updated: Feb 27, 2017 2:15pm
Mostly Cloudy
Mostly Cloudy
 Wind from S
Wind: S 10 mph , 17 km/h, Gust: 17 mph , 28 km/h
Temperature: 73°F , 23°C
Dew Point: 63°F , 17°C
Humidity: 69%
Barometer: 29.87 inHg , 1011.5 hPa
Clouds: Mostly Cloudy
Visibility: 10 miles , 16 km
Cloud details: Partly Cloudy 2600 ft
Mostly Cloudy 3400 ft
Mostly Cloudy 3900 ft
2017/02/27 20:15 KLUD 272015Z AUTO 19009G15KT 10SM SCT026 BKN034 BKN039 23/17 A2987 RMK AO2 T02260165
KXBP - Bridgeport, Texas, USA
Distance from Wildwood: WSW 11mi, 18km
Updated: Feb 27, 2017 2:15pm
Partly Cloudy
Partly Cloudy
 Wind from S
Wind: S 13 mph , 20 km/h, Gust: 17 mph , 28 km/h
Temperature: 73°F , 23°C
Dew Point: 63°F , 17°C
Humidity: 69%
Barometer: 29.88 inHg , 1011.9 hPa
Clouds: Partly Cloudy
Visibility: 10 miles , 16 km
Cloud details: Partly Cloudy 4400 ft
2017/02/27 20:15 KXBP 272015Z AUTO 18011G15KT 10SM SCT044 23/17 A2988 RMK AO2 T02310165
 
K0F2 - Bowie, Texas, USA
Distance from Wildwood: NNW 24mi, 39km
Updated: Feb 27, 2017 2:15pm
Mostly Cloudy
Mostly Cloudy
 Wind from S
Wind: S 14 mph , 22 km/h, Gust: 22 mph , 35 km/h
Temperature: 77°F , 25°C
Dew Point: 63°F , 17°C
Humidity: 61%
Barometer: 29.85 inHg , 1010.8 hPa
Clouds: Mostly Cloudy
Visibility: 10 miles , 16 km
Cloud details: Mostly Cloudy 2400 ft
Mostly Cloudy 3600 ft
Mostly Cloudy 4200 ft
2017/02/27 20:15 K0F2 272015Z AUTO 19012G19KT 10SM BKN024 BKN036 BKN042 25/17 A2985 RMK AO2 T02530168
KDTO - Denton, Texas, USA
Distance from Wildwood: E 27mi, 44km
Updated: Feb 27, 2017 2:22pm
Overcast
Overcast
 Wind from S
Wind: S 14 mph , 22 km/h
Temperature: 73°F , 23°C
Dew Point: 63°F , 17°C
Humidity: 69%
Barometer: 29.87 inHg , 1011.5 hPa
Clouds: Overcast
Visibility: 10 miles , 16 km
Cloud details: Mostly Cloudy 3100 ft
Overcast 4000 ft
2017/02/27 20:22 KDTO 272022Z 19012KT 10SM BKN031 OVC040 23/17 A2987 RMK AO2 T02280172
 
KAFW - Ft Worth/Allianc, Texas, USA
Distance from Wildwood: SE 29mi, 46km
Updated: Feb 27, 2017 1:53pm
Overcast
Overcast
 Wind from SSW
Wind: SSW 10 mph , 17 km/h
Temperature: 73°F , 23°C
Dew Point: 63°F , 17°C
Humidity: 69%
Barometer: 29.88 inHg , 1011.9 hPa
Clouds: Overcast
Visibility: 10 miles , 16 km
Cloud details: Mostly Cloudy 3000 ft
Overcast 3500 ft
2017/02/27 19:53 KAFW 271953Z 20009KT 10SM BKN030 OVC035 23/17 A2988 RMK AO2 SLP111 CB MOV NE T02280167
KFTW - Fort Worth, Texas, USA
Distance from Wildwood: SSE 34mi, 55km
Updated: Feb 27, 2017 1:53pm
Light rain, Overcast
Light rain, Overcast
 Wind from SSW
Wind: SSW 15 mph , 24 km/h
Temperature: 73°F , 23°C
Dew Point: 63°F , 17°C
Humidity: 69%
Barometer: 29.88 inHg , 1011.9 hPa
Summary: Light Rain
Clouds: Overcast
Visibility: 10 miles , 16 km
Cloud details: Mostly Cloudy 2700 ft
Overcast 3500 ft
2017/02/27 19:53 KFTW 271953Z 21013KT 10SM -RA BKN027 OVC035 23/17 A2988 RMK AO2 RAB47 SLP111 P0000 T02330167
 
KNFW - Fort Worth Nas, Texas, USA
Distance from Wildwood: SSE 36mi, 58km
Updated: Feb 27, 2017 1:52pm
Overcast
Overcast
 Wind from S
Wind: S 17 mph , 28 km/h
Temperature: 75°F , 24°C
Dew Point: 63°F , 17°C
Humidity: 65%
Barometer: 29.89 inHg , 1012.2 hPa
Clouds: Overcast
Visibility: 10 miles , 16 km
Cloud details: Partly Cloudy 2700 ft
Overcast 3400 ft
2017/02/27 19:52 KNFW 271952Z 19015KT 10SM SCT027 OVC034 24/17 A2989 RMK AO2 SLP105 T02390172 $
KGLE - Gainesville, Texas, USA
Distance from Wildwood: NE 38mi, 61km
Updated: Feb 27, 2017 2:15pm
Overcast
Overcast
 Wind from S
Wind: S 14 mph , 22 km/h, Gust: 25 mph , 41 km/h
Temperature: 73°F , 23°C
Dew Point: 61°F , 16°C
Humidity: 65%
Barometer: 29.88 inHg , 1011.9 hPa
Clouds: Overcast
Visibility: 10 miles , 16 km
Cloud details: Partly Cloudy 2000 ft
Partly Cloudy 2700 ft
Overcast 4300 ft
2017/02/27 20:15 KGLE 272015Z AUTO 19012G22KT 10SM SCT020 SCT027 OVC043 23/16 A2988 RMK AO2 T02250161
 
KMWL - Mineral Wells, Texas, USA
Distance from Wildwood: SW 41mi, 65km
Updated: Feb 27, 2017 1:53pm
Mostly Cloudy
Mostly Cloudy
 Wind from S
Wind: S 13 mph , 20 km/h, Gust: 24 mph , 39 km/h
Temperature: 73°F , 23°C
Dew Point: 63°F , 17°C
Humidity: 69%
Barometer: 29.86 inHg , 1011.2 hPa
Clouds: Mostly Cloudy
Visibility: 10 miles , 16 km
Cloud details: Few Clouds 2300 ft
Partly Cloudy 2900 ft
Mostly Cloudy 3500 ft
2017/02/27 19:53 KMWL 271953Z AUTO 19011G21KT 10SM FEW023 SCT029 BKN035 23/17 A2986 RMK AO2 SLP103 T02330167
KDFW - Dallas/Ft Worth, Texas, USA
Distance from Wildwood: ESE 45mi, 73km
Updated: Feb 27, 2017 1:53pm
Overcast
Overcast
 Wind from S
Wind: S 15 mph , 24 km/h
Temperature: 75°F , 24°C
Dew Point: 64°F , 18°C
Humidity: 69%
Barometer: 29.88 inHg , 1011.9 hPa
Clouds: Overcast
Visibility: 10 miles , 16 km
Cloud details: Partly Cloudy 2900 ft
Mostly Cloudy 3300 ft
Overcast 4300 ft
2017/02/27 19:53 KDFW 271953Z 18013KT 10SM SCT029 BKN033 OVC043 24/18 A2988 RMK AO2 RAE00 SLP110 P0000 T02390178